Time;durP1;ratioP1;P1;durP2;ratioP2;P2;SDS_P1;SDS_P2;PMS_P1;PMS_P2;Temp;Humidity;BMP_temperature;BMP_pressure;BME280_temperature;BME280_humidity;BME280_pressure;Samples;Min_cycle;Max_cycle;Signal;HPM_P1;HPM_P2
2021/08/13 00:01:51;;;;;;;1.23;1.13;;;;;;;32.23;23.88;98845.88;5060010;28;20493;-82
2021/08/13 00:04:17;;;;;;;1.27;1.13;;;;;;;32.25;23.69;98843.34;5064538;28;20546;-82
2021/08/13 00:06:44;;;;;;;1.88;1.10;;;;;;;32.19;24.07;98839.53;5061497;28;20037;-82
2021/08/13 00:09:10;;;;;;;1.67;1.30;;;;;;;32.15;23.83;98838.91;5066001;28;20393;-82
2021/08/13 00:11:38;;;;;;;2.67;1.23;;;;;;;32.18;23.93;98843.66;5060425;28;20025;-82
2021/08/13 00:14:06;;;;;;;1.58;1.15;;;;;;;32.21;23.65;98845.56;5056456;28;20033;-82
2021/08/13 00:16:32;;;;;;;2.70;1.35;;;;;;;32.29;23.56;98846.81;5066911;28;20500;-82
2021/08/13 00:18:59;;;;;;;1.23;1.13;;;;;;;32.24;24.00;98853.13;5064297;28;20040;-82
2021/08/13 00:21:25;;;;;;;1.13;1.02;;;;;;;32.09;23.65;98850.13;5064637;28;20033;-82
2021/08/13 00:23:51;;;;;;;1.30;1.10;;;;;;;32.06;23.84;98856.75;5058573;28;20049;-82
2021/08/13 00:26:17;;;;;;;2.05;1.10;;;;;;;32.11;24.00;98856.13;5065881;28;20028;-82
2021/08/13 00:28:43;;;;;;;1.80;1.10;;;;;;;32.17;23.45;98856.28;5054948;28;20083;-82
2021/08/13 00:31:09;;;;;;;1.60;1.23;;;;;;;32.26;23.67;98857.06;5057171;28;20036;-82
2021/08/13 00:33:35;;;;;;;1.92;1.30;;;;;;;32.21;24.00;98859.78;5062816;28;20041;-82
2021/08/13 00:36:01;;;;;;;1.33;1.00;;;;;;;32.26;23.27;98861.97;5058777;28;20036;-82
2021/08/13 00:38:27;;;;;;;1.10;1.00;;;;;;;32.12;23.92;98862.56;5057015;28;20541;-81
2021/08/13 00:40:53;;;;;;;1.25;1.02;;;;;;;32.21;23.63;98859.78;5063229;28;20489;-82
2021/08/13 00:43:19;;;;;;;2.75;1.30;;;;;;;32.09;23.53;98856.56;5064027;28;20510;-82
2021/08/13 00:45:45;;;;;;;1.45;1.02;;;;;;;32.21;23.42;98854.84;5062107;28;20465;-82
2021/08/13 00:48:11;;;;;;;1.27;1.17;;;;;;;32.20;23.63;98858.19;5056430;28;20576;-82
2021/08/13 00:50:38;;;;;;;1.95;1.20;;;;;;;32.05;23.34;98850.25;5065936;28;20115;-82
2021/08/13 00:53:06;;;;;;;1.75;1.40;;;;;;;32.11;23.49;98846.81;5054672;28;20025;-82
2021/08/13 00:55:32;;;;;;;1.48;1.13;;;;;;;32.04;23.95;98845.81;5057483;28;20044;-82
2021/08/13 00:57:59;;;;;;;1.95;1.30;;;;;;;31.95;23.57;98853.53;5055769;28;20375;-82
2021/08/13 01:00:25;;;;;;;1.30;1.13;;;;;;;31.99;23.39;98857.03;5055422;28;20033;-82
2021/08/13 01:02:51;;;;;;;1.60;1.10;;;;;;;32.01;23.13;98849.63;5056752;28;20029;-82
2021/08/13 01:05:17;;;;;;;1.60;0.95;;;;;;;32.05;23.36;98846.63;5061667;28;20036;-82
2021/08/13 01:07:44;;;;;;;4.15;1.40;;;;;;;31.63;24.06;98848.34;5060583;28;20090;-82
2021/08/13 01:10:12;;;;;;;1.95;1.23;;;;;;;31.39;24.69;98845.25;5062219;28;20401;-82
2021/08/13 01:12:41;;;;;;;1.73;1.23;;;;;;;31.38;24.42;98847.31;5057763;28;20145;-81
2021/08/13 01:15:13;;;;;;;2.40;1.75;;;;;;;31.39;24.74;98842.41;5064580;28;20111;-82
2021/08/13 01:17:57;;;;;;;2.10;1.25;;;;;;;31.24;24.76;98847.84;5055360;28;20091;-82
2021/08/13 01:20:44;;;;;;;1.95;1.17;;;;;;;31.53;23.86;98846.75;5055377;28;20040;-82
2021/08/13 01:23:16;;;;;;;1.45;1.02;;;;;;;31.89;23.47;98855.41;5069418;28;20032;-82
2021/08/13 01:25:48;;;;;;;2.00;1.27;;;;;;;32.07;23.39;98856.25;5056396;28;20029;-82
2021/08/13 01:28:37;;;;;;;1.58;1.15;;;;;;;32.18;23.39;98849.34;5056975;28;20055;-82
2021/08/13 01:31:12;;;;;;;1.77;1.10;;;;;;;32.13;22.87;98838.59;5058294;28;20029;-82
2021/08/13 01:33:41;;;;;;;1.52;1.10;;;;;;;32.29;22.97;98847.63;5054966;28;20032;-81
2021/08/13 01:36:10;;;;;;;1.02;0.98;;;;;;;32.40;22.73;98852.81;5054868;28;20055;-82
2021/08/13 01:38:39;;;;;;;1.20;1.10;;;;;;;32.29;23.16;98849.66;5059936;28;20033;-82
2021/08/13 01:41:08;;;;;;;1.70;1.15;;;;;;;31.98;23.52;98844.06;5067286;28;20035;-81
2021/08/13 01:43:38;;;;;;;3.05;1.20;;;;;;;31.98;23.77;98850.56;5072185;28;20037;-81
2021/08/13 01:46:05;;;;;;;1.77;1.40;;;;;;;31.78;24.11;98840.84;5064340;28;20041;-82
2021/08/13 01:48:34;;;;;;;1.05;0.88;;;;;;;31.59;24.14;98842.84;5063143;28;20041;-81
2021/08/13 01:51:01;;;;;;;3.05;1.63;;;;;;;31.71;23.84;98838.31;5054896;28;20025;-82
2021/08/13 01:53:29;;;;;;;1.77;1.20;;;;;;;31.79;23.95;98842.41;5054933;28;20041;-82
2021/08/13 01:55:56;;;;;;;3.20;1.15;;;;;;;31.77;23.91;98847.78;5063503;28;20527;-82
2021/08/13 01:58:23;;;;;;;4.13;1.77;;;;;;;31.63;24.14;98842.69;5057150;28;20071;-82
2021/08/13 02:00:51;;;;;;;1.38;1.20;;;;;;;31.32;24.39;98846.31;5067988;28;20033;-82
2021/08/13 02:03:18;;;;;;;1.02;1.00;;;;;;;31.52;24.25;98845.16;5062340;28;20043;-81
2021/08/13 02:05:47;;;;;;;2.85;1.88;;;;;;;30.99;24.75;98844.41;5065284;28;20033;-82
2021/08/13 02:08:16;;;;;;;2.63;1.33;;;;;;;31.03;24.96;98845.03;5065528;28;20045;-82
2021/08/13 02:10:45;;;;;;;2.60;1.13;;;;;;;31.00;24.70;98837.47;5060111;28;20124;-81
2021/08/13 02:13:11;;;;;;;1.90;1.10;;;;;;;30.78;25.38;98837.47;5054446;28;20484;-82
2021/08/13 02:15:42;;;;;;;1.25;1.10;;;;;;;30.88;25.01;98846.81;5056221;28;20457;-82
2021/08/13 02:18:14;;;;;;;2.42;1.00;;;;;;;31.27;24.35;98843.31;5055868;28;20105;-81
2021/08/13 02:20:44;;;;;;;1.38;1.20;;;;;;;31.46;23.87;98844.22;5056894;28;20035;-82
2021/08/13 02:23:10;;;;;;;2.00;1.00;;;;;;;31.72;23.54;98848.38;5066388;28;20025;-82
2021/08/13 02:25:37;;;;;;;1.23;1.00;;;;;;;31.85;23.36;98852.72;5063768;28;20032;-82
2021/08/13 02:28:04;;;;;;;3.80;1.60;;;;;;;31.68;23.87;98857.06;5065235;28;20103;-82
2021/08/13 02:30:30;;;;;;;1.52;1.02;;;;;;;31.54;24.17;98854.81;5058160;28;20039;-82
2021/08/13 02:32:56;;;;;;;1.40;1.15;;;;;;;31.25;24.39;98857.16;5062626;28;20024;-82
2021/08/13 02:35:22;;;;;;;1.45;1.10;;;;;;;31.20;24.22;98850.03;5054792;28;20107;-81
2021/08/13 02:38:17;;;;;;;1.15;0.90;;;;;;;31.31;24.08;98839.06;5059095;28;20028;-81
2021/08/13 02:40:55;;;;;;;3.00;1.30;;;;;;;30.92;24.53;98836.16;5064272;28;20040;-82
2021/08/13 02:43:33;;;;;;;6.53;1.63;;;;;;;30.76;24.57;98849.25;5065131;28;20032;-82
2021/08/13 02:46:00;;;;;;;2.10;1.27;;;;;;;30.68;24.66;98845.09;5056112;28;20029;-81
2021/08/13 02:48:28;;;;;;;1.30;0.93;;;;;;;30.89;24.64;98846.38;5053204;28;20079;-81
2021/08/13 02:50:56;;;;;;;1.58;1.17;;;;;;;30.96;24.18;98845.31;5058592;28;20065;-81
2021/08/13 02:53:24;;;;;;;1.60;1.10;;;;;;;31.12;24.05;98843.06;5065130;28;20078;-81
2021/08/13 02:56:03;;;;;;;1.15;1.05;;;;;;;31.35;23.76;98838.91;5060718;28;20029;-81
2021/08/13 02:59:00;;;;;;;1.45;1.17;;;;;;;31.29;24.26;98841.59;5056310;28;20495;-82
2021/08/13 03:01:32;;;;;;;1.02;0.93;;;;;;;31.31;23.88;98833.38;5052970;28;20090;-82
2021/08/13 03:04:01;;;;;;;2.85;1.10;;;;;;;31.33;23.58;98845.06;5053854;28;20041;-81
2021/08/13 03:06:37;;;;;;;0.90;0.90;;;;;;;31.16;23.99;98838.03;5055687;28;20112;-81
2021/08/13 03:09:05;;;;;;;1.20;1.10;;;;;;;31.10;24.40;98839.91;5066607;28;20055;-81
2021/08/13 03:11:33;;;;;;;1.88;1.27;;;;;;;31.14;24.12;98836.91;5054992;28;20048;-81
2021/08/13 03:14:01;;;;;;;1.30;1.20;;;;;;;30.95;24.49;98835.25;5053472;28;20057;-82
2021/08/13 03:16:27;;;;;;;1.58;1.48;;;;;;;29.77;26.35;98834.94;5053459;28;20036;-82
2021/08/13 03:18:56;;;;;;;1.70;1.13;;;;;;;29.80;25.99;98842.50;5057580;28;20052;-81
2021/08/13 03:21:22;;;;;;;1.55;1.20;;;;;;;30.24;25.73;98834.94;5058316;28;20025;-81
2021/08/13 03:23:49;;;;;;;1.70;1.33;;;;;;;30.42;25.27;98840.00;5055484;28;20033;-82
2021/08/13 03:26:16;;;;;;;1.95;1.00;;;;;;;30.49;24.77;98831.25;5053231;28;20062;-81
2021/08/13 03:28:42;;;;;;;1.55;1.45;;;;;;;30.55;25.24;98833.03;5061544;28;20115;-81
2021/08/13 03:31:08;;;;;;;2.78;1.20;;;;;;;30.31;25.78;98839.56;5067072;28;20036;-81
2021/08/13 03:33:35;;;;;;;1.48;1.00;;;;;;;30.53;25.33;98835.53;5055116;28;20040;-81
2021/08/13 03:36:01;;;;;;;1.10;1.00;;;;;;;30.69;24.77;98835.34;5057435;28;20067;-81
2021/08/13 03:38:27;;;;;;;1.40;1.30;;;;;;;30.65;25.04;98840.34;5056590;28;20041;-81
2021/08/13 03:40:53;;;;;;;1.33;1.02;;;;;;;30.91;25.08;98826.06;5061480;28;20036;-81
2021/08/13 03:43:20;;;;;;;2.35;1.02;;;;;;;31.02;24.97;98827.22;5070882;28;20058;-81
2021/08/13 03:45:46;;;;;;;1.00;0.90;;;;;;;31.09;24.73;98832.63;5058830;28;20044;-81
2021/08/13 03:48:12;;;;;;;1.98;1.10;;;;;;;30.87;24.80;98837.53;5063120;28;20410;-81
2021/08/13 03:50:38;;;;;;;1.75;1.10;;;;;;;30.99;24.49;98833.84;5056868;28;20040;-81
2021/08/13 03:53:04;;;;;;;1.30;1.20;;;;;;;31.05;24.66;98843.34;5070207;28;20028;-82
2021/08/13 03:55:30;;;;;;;1.60;1.15;;;;;;;30.92;24.96;98842.63;5060618;28;20044;-82
2021/08/13 03:57:56;;;;;;;2.08;1.02;;;;;;;31.07;24.78;98842.84;5068116;28;20550;-81
2021/08/13 04:00:23;;;;;;;1.23;1.13;;;;;;;31.20;24.78;98841.50;5060112;28;20036;-82
2021/08/13 04:02:48;;;;;;;1.67;1.13;;;;;;;31.41;24.90;98843.50;5059979;28;20052;-81
2021/08/13 04:05:15;;;;;;;1.33;1.13;;;;;;;31.66;24.59;98842.56;5057277;28;20533;-81
2021/08/13 04:07:41;;;;;;;2.35;1.75;;;;;;;31.33;25.32;98838.59;5063174;28;20040;-81
2021/08/13 04:10:07;;;;;;;2.85;1.70;;;;;;;31.37;25.70;98833.56;5062880;28;20044;-82
2021/08/13 04:12:33;;;;;;;1.60;1.40;;;;;;;31.79;25.60;98834.69;5061572;28;20088;-81
2021/08/13 04:14:59;;;;;;;2.42;1.20;;;;;;;31.93;25.36;98827.63;5068888;28;20570;-81
2021/08/13 04:17:25;;;;;;;2.10;1.63;;;;;;;31.86;25.69;98823.03;5057474;28;20382;-81
2021/08/13 04:19:51;;;;;;;2.80;1.92;;;;;;;31.82;25.65;98819.56;5064138;28;20033;-81
2021/08/13 04:22:18;;;;;;;1.90;1.63;;;;;;;32.18;25.59;98820.91;5057271;28;20033;-81
2021/08/13 04:24:44;;;;;;;1.85;1.45;;;;;;;32.26;25.31;98817.28;5056490;28;20037;-81
2021/08/13 04:27:10;;;;;;;1.80;1.30;;;;;;;32.17;25.15;98819.31;5056255;28;20033;-81
2021/08/13 04:29:36;;;;;;;1.58;1.13;;;;;;;32.50;25.45;98826.00;5061302;28;20063;-81
2021/08/13 04:32:03;;;;;;;4.82;2.00;;;;;;;32.28;25.44;98833.88;5065121;28;20044;-82
2021/08/13 04:34:29;;;;;;;2.05;1.52;;;;;;;31.97;25.75;98828.31;5063461;28;20032;-81
2021/08/13 04:36:55;;;;;;;2.22;1.98;;;;;;;31.84;26.23;98834.09;5061948;28;20036;-81
2021/08/13 04:39:21;;;;;;;2.75;1.65;;;;;;;32.09;26.86;98830.22;5071170;28;20526;-82
2021/08/13 04:41:47;;;;;;;1.85;1.52;;;;;;;32.14;26.32;98829.59;5056028;28;20106;-81
2021/08/13 04:44:13;;;;;;;2.85;1.60;;;;;;;32.05;26.25;98829.56;5064174;28;20074;-82
2021/08/13 04:46:39;;;;;;;2.50;1.55;;;;;;;31.87;26.87;98824.63;5058306;28;20378;-81
2021/08/13 04:49:05;;;;;;;2.22;1.95;;;;;;;31.78;26.52;98832.34;5068858;28;20050;-82
2021/08/13 04:51:31;;;;;;;1.63;1.50;;;;;;;32.17;26.92;98830.69;5074618;28;20032;-82
2021/08/13 04:53:57;;;;;;;1.42;1.33;;;;;;;32.08;26.86;98832.28;5075349;28;20032;-81
2021/08/13 04:56:23;;;;;;;2.60;1.70;;;;;;;32.22;27.52;98830.06;5073995;28;20040;-82
2021/08/13 04:58:49;;;;;;;1.90;1.50;;;;;;;32.37;26.47;98833.88;5075931;28;20029;-82
2021/08/13 05:01:15;;;;;;;1.25;1.13;;;;;;;32.29;26.66;98839.09;5067822;28;20043;-82
2021/08/13 05:03:41;;;;;;;1.67;1.58;;;;;;;31.80;26.48;98839.13;5055231;28;20037;-82
2021/08/13 05:06:07;;;;;;;1.55;1.20;;;;;;;32.24;26.57;98842.56;5061421;28;20076;-81
2021/08/13 05:08:33;;;;;;;3.38;1.55;;;;;;;32.78;26.27;98841.78;5064782;28;20059;-81
2021/08/13 05:10:59;;;;;;;1.25;1.15;;;;;;;32.77;25.19;98856.50;5061196;28;20039;-81
2021/08/13 05:13:25;;;;;;;1.20;1.10;;;;;;;33.05;25.21;98855.22;5055765;28;20039;-81
2021/08/13 05:15:51;;;;;;;1.95;0.95;;;;;;;32.91;25.98;98850.16;5055335;28;20032;-81
2021/08/13 05:18:18;;;;;;;6.65;1.92;;;;;;;32.72;26.67;98855.84;5055083;28;20036;-81
2021/08/13 05:20:44;;;;;;;1.30;1.20;;;;;;;33.05;26.64;98847.47;5055026;28;20032;-81
2021/08/13 05:23:10;;;;;;;1.38;1.15;;;;;;;32.94;26.43;98852.84;5057111;28;20443;-80
2021/08/13 05:25:36;;;;;;;1.25;1.15;;;;;;;33.04;25.85;98853.63;5055374;28;20029;-81
2021/08/13 05:28:02;;;;;;;1.73;1.40;;;;;;;33.10;25.46;98854.56;5062090;28;20029;-81
2021/08/13 05:30:28;;;;;;;1.33;0.95;;;;;;;33.56;25.67;98855.25;5069848;28;20037;-82
2021/08/13 05:32:54;;;;;;;1.38;1.27;;;;;;;33.79;25.70;98863.06;5066090;28;20029;-82
2021/08/13 05:35:20;;;;;;;1.38;1.27;;;;;;;33.35;26.75;98854.19;5054384;28;20036;-81
2021/08/13 05:37:46;;;;;;;1.20;1.08;;;;;;;33.10;26.16;98860.25;5066096;28;20028;-81
2021/08/13 05:40:12;;;;;;;1.33;1.23;;;;;;;33.10;26.36;98866.75;5074203;28;20036;-81
2021/08/13 05:42:39;;;;;;;4.03;1.38;;;;;;;33.12;26.10;98864.22;5074317;28;20032;-82
2021/08/13 05:45:05;;;;;;;1.83;1.33;;;;;;;33.40;26.00;98865.72;5064280;28;20071;-82
2021/08/13 05:47:33;;;;;;;2.08;1.50;;;;;;;32.52;26.56;98864.09;5074055;28;20036;-82
2021/08/13 05:49:59;;;;;;;1.58;1.48;;;;;;;32.12;27.83;98859.72;5074250;28;20033;-81
2021/08/13 05:52:25;;;;;;;1.95;1.65;;;;;;;32.35;27.30;98862.78;5074120;28;20498;-81
2021/08/13 05:54:51;;;;;;;3.33;1.65;;;;;;;32.35;27.47;98865.63;5074061;28;20522;-81
2021/08/13 05:57:17;;;;;;;1.67;1.40;;;;;;;32.34;27.42;98857.56;5074016;28;20021;-81
2021/08/13 05:59:43;;;;;;;4.97;1.75;;;;;;;33.07;27.32;98862.00;5074790;28;20033;-81
2021/08/13 06:02:10;;;;;;;1.60;1.50;;;;;;;33.38;26.45;98858.91;5073741;28;20028;-81
2021/08/13 06:04:36;;;;;;;1.50;1.40;;;;;;;33.58;26.82;98866.94;5072660;28;20043;-81
2021/08/13 06:07:02;;;;;;;1.63;1.52;;;;;;;32.77;26.62;98859.34;5073952;28;20028;-81
2021/08/13 06:09:28;;;;;;;1.40;1.30;;;;;;;33.23;26.91;98858.03;5073766;28;20060;-81
2021/08/13 06:11:54;;;;;;;1.73;1.45;;;;;;;33.86;27.07;98862.72;5073846;28;20036;-81
2021/08/13 06:14:20;;;;;;;3.55;1.30;;;;;;;33.76;26.46;98864.03;5067916;28;20039;-81
2021/08/13 06:16:46;;;;;;;3.97;1.50;;;;;;;33.37;26.69;98857.34;5054027;28;20025;-81
2021/08/13 06:19:12;;;;;;;1.65;1.42;;;;;;;33.74;27.38;98858.03;5060722;28;20028;-81
2021/08/13 06:21:38;;;;;;;2.70;1.30;;;;;;;34.02;26.58;98865.94;5073739;28;20111;-82
2021/08/13 06:24:04;;;;;;;2.97;1.65;;;;;;;33.72;25.79;98869.91;5073406;28;20068;-81
2021/08/13 06:26:30;;;;;;;2.22;1.75;;;;;;;32.94;27.61;98872.75;5073486;28;20058;-81
2021/08/13 06:28:57;;;;;;;2.28;1.58;;;;;;;33.85;26.67;98872.53;5054006;28;20025;-81
2021/08/13 06:31:23;;;;;;;1.52;1.25;;;;;;;33.79;26.29;98863.84;5055612;28;20104;-81
2021/08/13 06:33:49;;;;;;;1.20;1.10;;;;;;;34.02;26.42;98865.16;5053948;28;20099;-81
2021/08/13 06:36:16;;;;;;;1.75;1.10;;;;;;;34.52;26.49;98869.09;5061267;28;20036;-81
2021/08/13 06:38:42;;;;;;;1.35;1.08;;;;;;;35.10;26.96;98871.34;5072950;28;20058;-81
2021/08/13 06:41:08;;;;;;;1.40;1.23;;;;;;;35.08;24.87;98885.34;5073573;28;20029;-81
2021/08/13 06:43:34;;;;;;;1.52;1.27;;;;;;;35.10;25.43;98877.06;5073240;28;20087;-82
2021/08/13 06:46:00;;;;;;;2.40;1.30;;;;;;;34.87;25.98;98867.25;5073292;28;20404;-82
2021/08/13 06:48:26;;;;;;;3.20;1.45;;;;;;;34.80;25.90;98861.91;5072961;28;20515;-81
2021/08/13 06:50:52;;;;;;;2.45;1.40;;;;;;;34.31;25.53;98876.69;5073156;28;20040;-82
2021/08/13 06:53:18;;;;;;;3.25;1.60;;;;;;;33.39;26.68;98872.69;5067635;28;20036;-82
2021/08/13 06:55:44;;;;;;;1.55;1.27;;;;;;;32.70;27.96;98874.66;5063308;28;20508;-82
2021/08/13 06:58:10;;;;;;;1.40;1.30;;;;;;;33.58;27.20;98856.34;5073335;28;20036;-82
2021/08/13 07:00:36;;;;;;;4.18;1.50;;;;;;;34.11;26.78;98855.78;5071212;28;20029;-82
2021/08/13 07:03:04;;;;;;;1.40;1.30;;;;;;;34.08;26.75;98860.38;5053096;28;20033;-82
2021/08/13 07:05:30;;;;;;;2.33;1.67;;;;;;;33.54;26.16;98855.72;5064135;28;20037;-82
2021/08/13 07:07:56;;;;;;;3.45;1.33;;;;;;;33.49;27.28;98856.38;5073807;28;20115;-82
2021/08/13 07:10:22;;;;;;;2.53;1.50;;;;;;;34.35;25.84;98853.72;5079559;28;20387;-81
2021/08/13 07:12:48;;;;;;;2.25;1.27;;;;;;;34.55;26.60;98860.41;5079770;28;20032;-82
2021/08/13 07:15:14;;;;;;;2.00;1.40;;;;;;;34.17;25.59;98856.72;5079525;28;20036;-82
2021/08/13 07:17:41;;;;;;;4.60;1.38;;;;;;;34.79;26.39;98856.72;5079629;28;20439;-82
2021/08/13 07:20:08;;;;;;;1.70;1.27;;;;;;;34.91;25.96;98856.44;5079373;28;20062;-82
2021/08/13 07:22:35;;;;;;;2.38;1.00;;;;;;;35.20;26.30;98855.69;5072190;28;20107;-81
2021/08/13 07:25:01;;;;;;;2.92;1.65;;;;;;;34.67;26.00;98858.56;5074626;28;20029;-82
2021/08/13 07:27:28;;;;;;;1.88;1.40;;;;;;;35.02;26.49;98850.97;5079371;28;20033;-81
2021/08/13 07:29:54;;;;;;;1.30;1.20;;;;;;;34.68;25.95;98860.16;5079202;28;20052;-81
2021/08/13 07:32:20;;;;;;;3.03;1.35;;;;;;;34.13;27.07;98854.03;5079684;28;20040;-81
2021/08/13 07:34:46;;;;;;;1.75;1.45;;;;;;;34.52;26.81;98871.94;5079358;28;20027;-82
2021/08/13 07:37:13;;;;;;;1.40;1.10;;;;;;;35.16;25.48;98866.53;5079451;28;20097;-82
2021/08/13 07:39:39;;;;;;;1.50;1.40;;;;;;;35.01;26.07;98865.72;5079266;28;20148;-82
2021/08/13 07:42:05;;;;;;;1.50;1.40;;;;;;;34.98;26.08;98858.91;5079390;28;20032;-82
2021/08/13 07:44:31;;;;;;;1.55;1.33;;;;;;;35.82;24.75;98858.31;5079011;28;20370;-82
2021/08/13 07:46:57;;;;;;;1.50;1.40;;;;;;;36.26;24.53;98850.38;5079400;28;20048;-82
2021/08/13 07:49:23;;;;;;;2.95;1.45;;;;;;;35.76;26.49;98849.63;5079198;28;20035;-82
2021/08/13 07:51:49;;;;;;;1.35;1.20;;;;;;;35.92;24.59;98866.25;5079345;28;20033;-82
2021/08/13 07:54:15;;;;;;;1.45;1.35;;;;;;;36.46;25.19;98852.47;5079320;28;20036;-82
2021/08/13 07:56:41;;;;;;;2.10;1.52;;;;;;;36.12;23.42;98856.16;5079200;28;20583;-81
2021/08/13 07:59:08;;;;;;;1.52;1.10;;;;;;;36.45;24.81;98859.50;5078524;28;20049;-82
2021/08/13 08:01:34;;;;;;;1.17;0.90;;;;;;;36.42;25.02;98863.31;5078914;28;20064;-82
2021/08/13 08:04:00;;;;;;;1.52;1.17;;;;;;;36.02;24.12;98864.09;5079036;28;20037;-82
2021/08/13 08:06:29;;;;;;;1.55;1.45;;;;;;;35.63;25.34;98859.81;5078146;28;20498;-82
2021/08/13 08:08:56;;;;;;;1.45;0.95;;;;;;;36.19;24.51;98864.31;5079641;28;20032;-82
2021/08/13 08:11:22;;;;;;;1.90;1.23;;;;;;;36.58;24.39;98862.78;5079104;28;20025;-82
2021/08/13 08:13:48;;;;;;;2.13;1.40;;;;;;;36.12;24.68;98856.16;5078833;28;20107;-81
2021/08/13 08:16:14;;;;;;;0.90;0.90;;;;;;;36.00;25.22;98860.94;5067742;28;20492;-82
2021/08/13 08:18:40;;;;;;;2.47;1.40;;;;;;;35.65;25.52;98860.09;5069988;28;20435;-82
2021/08/13 08:21:06;;;;;;;2.83;1.20;;;;;;;35.25;25.37;98864.34;5073817;28;20468;-81
2021/08/13 08:23:32;;;;;;;1.25;1.00;;;;;;;35.99;24.64;98863.00;5075795;28;20036;-82
2021/08/13 08:25:58;;;;;;;1.48;1.30;;;;;;;34.64;26.09;98862.38;5075678;28;20063;-82
2021/08/13 08:28:24;;;;;;;1.45;1.30;;;;;;;34.25;27.07;98861.53;5074797;28;20044;-82
2021/08/13 08:30:50;;;;;;;1.55;1.23;;;;;;;34.96;26.96;98869.25;5075956;28;20028;-82
2021/08/13 08:33:17;;;;;;;1.20;1.10;;;;;;;36.01;25.92;98860.44;5068955;28;20033;-82
2021/08/13 08:35:43;;;;;;;1.70;1.60;;;;;;;35.60;25.89;98864.44;5067322;28;20029;-82
2021/08/13 08:38:09;;;;;;;4.50;1.35;;;;;;;35.66;26.74;98870.25;5074526;28;20032;-82
2021/08/13 08:40:37;;;;;;;4.07;1.80;;;;;;;34.56;26.21;98869.75;5075715;28;20032;-82
2021/08/13 08:43:07;;;;;;;1.40;1.30;;;;;;;34.52;28.08;98869.91;5075369;28;20044;-82
2021/08/13 08:45:36;;;;;;;2.55;1.25;;;;;;;35.43;27.00;98872.72;5076046;28;20032;-82
2021/08/13 08:48:08;;;;;;;1.77;1.33;;;;;;;34.59;26.71;98878.09;5073848;28;20386;-82
2021/08/13 08:50:37;;;;;;;1.20;1.00;;;;;;;35.06;27.30;98877.25;5075462;28;20510;-82
2021/08/13 08:53:09;;;;;;;2.25;1.25;;;;;;;36.17;24.40;98867.69;5075251;28;20129;-82
2021/08/13 08:55:36;;;;;;;1.73;1.20;;;;;;;35.91;25.40;98876.13;5075348;28;20025;-82
2021/08/13 08:58:02;;;;;;;2.88;1.15;;;;;;;36.18;25.70;98877.81;5075384;28;20028;-82
2021/08/13 09:00:29;;;;;;;1.25;1.08;;;;;;;36.13;24.35;98881.38;5075205;28;20024;-82
2021/08/13 09:02:56;;;;;;;1.45;1.10;;;;;;;37.57;22.50;98874.53;5074993;28;20060;-82
2021/08/13 09:05:22;;;;;;;1.65;1.10;;;;;;;37.33;23.68;98871.94;5075157;28;20028;-82
2021/08/13 09:07:48;;;;;;;0.80;0.80;;;;;;;37.36;22.96;98875.88;5075524;28;20115;-82
2021/08/13 09:10:14;;;;;;;1.60;1.00;;;;;;;37.19;24.13;98875.72;5075039;28;20039;-82
2021/08/13 09:12:41;;;;;;;1.05;0.80;;;;;;;36.29;23.97;98883.72;5075087;28;20036;-82
2021/08/13 09:15:31;;;;;;;0.88;0.88;;;;;;;36.89;23.66;98873.53;5061610;28;20079;-82
2021/08/13 09:18:24;;;;;;;1.00;1.00;;;;;;;36.97;23.39;98874.72;5055157;28;20037;-82
2021/08/13 09:20:57;;;;;;;2.03;1.02;;;;;;;37.78;23.35;98875.22;5060668;28;20214;-82
2021/08/13 09:23:40;;;;;;;1.17;1.00;;;;;;;37.20;24.99;98871.53;5073376;28;20499;-82
2021/08/13 09:26:08;;;;;;;0.75;0.75;;;;;;;37.67;23.22;98873.03;5074334;28;20028;-82
2021/08/13 09:28:44;;;;;;;0.80;0.80;;;;;;;38.11;23.05;98869.72;5075005;28;20395;-82
2021/08/13 09:31:28;;;;;;;0.95;0.90;;;;;;;38.15;23.65;98870.28;5074056;28;20039;-82
2021/08/13 09:34:14;;;;;;;1.52;0.80;;;;;;;38.95;21.59;98880.31;5063106;28;20037;-82
2021/08/13 09:36:49;;;;;;;0.85;0.82;;;;;;;38.14;21.76;98873.66;5054572;28;20033;-82
2021/08/13 09:39:16;;;;;;;2.17;0.80;;;;;;;38.80;21.53;98874.00;5071911;28;20067;-82
2021/08/13 09:41:50;;;;;;;0.70;0.70;;;;;;;39.18;20.31;98881.19;5090016;28;20036;-82
2021/08/13 09:44:24;;;;;;;0.85;0.80;;;;;;;38.61;20.84;98887.22;5077758;28;20040;-82
2021/08/13 09:47:00;;;;;;;1.27;1.00;;;;;;;38.45;20.54;98879.31;5073928;28;20101;-82
2021/08/13 09:49:28;;;;;;;0.95;0.70;;;;;;;38.79;19.53;98878.16;5074346;28;20450;-82
2021/08/13 09:51:55;;;;;;;2.40;0.80;;;;;;;38.08;21.49;98876.47;5074524;28;20024;-82
2021/08/13 09:54:29;;;;;;;0.95;0.95;;;;;;;38.23;21.58;98874.22;5074009;28;20060;-82
2021/08/13 09:57:07;;;;;;;1.10;0.80;;;;;;;37.17;23.55;98871.78;5074054;28;20036;-82
2021/08/13 09:59:33;;;;;;;2.55;1.10;;;;;;;37.17;22.67;98881.16;5074080;28;20039;-82
2021/08/13 10:02:13;;;;;;;1.08;0.80;;;;;;;37.50;21.37;98868.47;5060431;28;20029;-82
2021/08/13 10:04:40;;;;;;;0.80;0.80;;;;;;;37.93;22.47;98875.84;5054126;28;20029;-82
2021/08/13 10:07:06;;;;;;;0.88;0.88;;;;;;;38.32;21.04;98876.91;5052981;28;20052;-82
2021/08/13 10:09:33;;;;;;;2.55;0.70;;;;;;;39.15;21.02;98876.47;5054217;28;20033;-82
2021/08/13 10:12:05;;;;;;;0.82;0.75;;;;;;;38.15;22.12;98869.47;5060729;28;20032;-82
2021/08/13 10:14:42;;;;;;;0.85;0.82;;;;;;;38.91;20.85;98873.25;5071751;28;20117;-82
2021/08/13 10:17:09;;;;;;;0.70;0.70;;;;;;;39.31;21.00;98870.75;5073592;28;20156;-82
2021/08/13 10:19:37;;;;;;;0.80;0.70;;;;;;;39.08;20.66;98874.84;5074090;28;20032;-82
2021/08/13 10:22:03;;;;;;;1.17;1.00;;;;;;;37.76;21.04;98869.19;5073773;28;20048;-82
2021/08/13 10:24:30;;;;;;;0.90;0.80;;;;;;;37.71;22.55;98867.88;5073663;28;20446;-82
2021/08/13 10:26:57;;;;;;;1.98;0.80;;;;;;;38.85;21.03;98863.84;5072788;28;20479;-82
2021/08/13 10:29:24;;;;;;;0.80;0.80;;;;;;;39.75;20.32;98875.72;5063206;28;20036;-82
2021/08/13 10:31:51;;;;;;;0.95;0.77;;;;;;;40.58;18.63;98866.94;5073612;28;20024;-82
2021/08/13 10:34:17;;;;;;;0.80;0.80;;;;;;;40.73;17.65;98872.34;5073258;28;20078;-82
2021/08/13 10:36:46;;;;;;;0.80;0.70;;;;;;;40.09;19.60;98870.75;5073587;28;20078;-82
2021/08/13 10:39:14;;;;;;;0.95;0.75;;;;;;;40.00;18.83;98871.75;5073438;28;20481;-82
2021/08/13 10:41:42;;;;;;;0.50;0.47;;;;;;;40.50;18.77;98860.16;5058204;28;20366;-82
2021/08/13 10:44:12;;;;;;;1.65;1.00;;;;;;;39.75;18.95;98867.09;5060310;28;20041;-82
2021/08/13 10:46:40;;;;;;;1.42;0.70;;;;;;;40.37;21.43;98865.69;5071660;28;20475;-82
2021/08/13 10:49:10;;;;;;;1.70;0.73;;;;;;;40.40;19.50;98849.47;5073347;28;20116;-81
2021/08/13 10:51:36;;;;;;;0.73;0.73;;;;;;;40.65;21.03;98856.97;5073272;28;20032;-80
2021/08/13 10:54:07;;;;;;;0.65;0.65;;;;;;;40.90;21.65;98858.69;5073427;28;20112;-80
2021/08/13 10:56:37;;;;;;;0.88;0.82;;;;;;;41.28;18.11;98854.81;5073227;28;20564;-80
2021/08/13 10:59:03;;;;;;;1.15;0.70;;;;;;;41.26;19.52;98857.44;5072982;28;20033;-80
2021/08/13 11:01:30;;;;;;;0.88;0.85;;;;;;;41.67;19.56;98850.78;5073025;28;20028;-80
2021/08/13 11:03:55;;;;;;;0.70;0.60;;;;;;;41.62;18.96;98857.38;5073173;28;20028;-80
2021/08/13 11:06:37;;;;;;;1.02;0.73;;;;;;;41.31;20.01;98844.31;5072081;28;20043;-80
2021/08/13 11:09:04;;;;;;;1.00;0.90;;;;;;;41.56;18.19;98845.91;5071836;28;20036;-80
2021/08/13 11:11:52;;;;;;;0.80;0.70;;;;;;;41.99;18.94;98846.81;5052008;28;20029;-80
2021/08/13 11:14:25;;;;;;;1.10;0.80;;;;;;;40.99;18.49;98835.31;5052993;28;20037;-81
2021/08/13 11:16:52;;;;;;;0.65;0.60;;;;;;;39.87;19.90;98839.91;5063386;28;20117;-80
2021/08/13 11:19:22;;;;;;;0.98;0.80;;;;;;;39.76;20.88;98842.78;5071466;28;20488;-80
2021/08/13 11:21:51;;;;;;;1.13;1.02;;;;;;;39.89;20.82;98837.28;5073141;28;20055;-80
2021/08/13 11:24:19;;;;;;;0.75;0.75;;;;;;;40.45;19.81;98831.38;5072982;28;20053;-80
2021/08/13 11:26:51;;;;;;;0.80;0.80;;;;;;;41.00;19.35;98836.09;5072664;28;20040;-80
2021/08/13 11:29:30;;;;;;;0.70;0.70;;;;;;;41.10;17.88;98826.59;5052782;28;20489;-80
2021/08/13 11:31:58;;;;;;;0.93;0.90;;;;;;;41.44;17.32;98832.13;5052866;28;20056;-80
2021/08/13 11:34:46;;;;;;;0.70;0.70;;;;;;;41.90;19.03;98821.22;5052844;28;20556;-80
2021/08/13 11:37:30;;;;;;;1.05;0.70;;;;;;;42.06;18.50;98827.38;5061726;28;20032;-80
2021/08/13 11:40:03;;;;;;;1.25;1.15;;;;;;;42.32;18.40;98830.47;5072117;28;20051;-80